Time;durP1;ratioP1;P1;durP2;ratioP2;P2;SDS_P1;SDS_P2;PMS_P1;PMS_P2;Temp;Humidity;BMP_temperature;BMP_pressure;BME280_temperature;BME280_humidity;BME280_pressure;Samples;Min_cycle;Max_cycle;Signal;HPM_P1;HPM_P2
2023/12/24 00:01:56;;;;;;;6.40;3.47;;;23.10;43.20;;;;;;6173118;28;80835;-61
2023/12/24 00:04:57;;;;;;;8.50;4.07;;;23.10;43.20;;;;;;6154649;28;81224;-59
2023/12/24 00:07:57;;;;;;;8.60;4.43;;;23.10;43.30;;;;;;6166575;28;80817;-59
2023/12/24 00:10:58;;;;;;;6.68;4.13;;;23.10;42.80;;;;;;6160811;28;80725;-59
2023/12/24 00:13:58;;;;;;;6.68;3.92;;;23.10;42.90;;;;;;6165741;28;83113;-59
2023/12/24 00:16:59;;;;;;;6.10;3.97;;;23.10;42.90;;;;;;6168785;28;88126;-60
2023/12/24 00:19:59;;;;;;;6.97;4.22;;;23.10;42.50;;;;;;6170198;28;80506;-60
2023/12/24 00:23:00;;;;;;;8.35;4.07;;;23.10;43.00;;;;;;6171877;28;81264;-60
2023/12/24 00:26:00;;;;;;;7.57;3.55;;;23.10;42.90;;;;;;6162310;28;80739;-60
2023/12/24 00:29:01;;;;;;;6.07;3.47;;;23.00;42.70;;;;;;6168686;28;80828;-60
2023/12/24 00:32:02;;;;;;;7.88;4.20;;;23.10;42.90;;;;;;6160064;28;80829;-65
2023/12/24 00:35:02;;;;;;;7.07;4.10;;;23.10;42.80;;;;;;6155591;28;82510;-65
2023/12/24 00:38:03;;;;;;;7.43;3.25;;;23.10;42.50;;;;;;6155558;28;80899;-64
2023/12/24 00:41:03;;;;;;;6.20;3.53;;;23.10;42.80;;;;;;6174600;28;82721;-64
2023/12/24 00:44:04;;;;;;;6.82;3.97;;;23.10;42.60;;;;;;6172708;28;83336;-64
2023/12/24 00:47:04;;;;;;;5.40;3.22;;;23.10;42.50;;;;;;6179340;28;82990;-61
2023/12/24 00:50:05;;;;;;;5.80;3.17;;;23.10;42.50;;;;;;6154778;28;83701;-60
2023/12/24 00:53:07;;;;;;;5.43;3.13;;;23.10;42.40;;;;;;6165728;28;83275;-61
2023/12/24 00:56:07;;;;;;;6.05;3.63;;;23.10;42.30;;;;;;6156858;28;81629;-61
2023/12/24 00:59:08;;;;;;;7.45;3.25;;;23.10;42.40;;;;;;6154626;28;81199;-63
2023/12/24 01:02:08;;;;;;;5.22;3.20;;;23.10;42.50;;;;;;6165245;28;81402;-63
2023/12/24 01:05:09;;;;;;;4.65;2.85;;;23.10;42.50;;;;;;6178714;28;80602;-64
2023/12/24 01:08:09;;;;;;;4.53;2.80;;;23.10;42.50;;;;;;6176986;28;83860;-64
2023/12/24 01:11:10;;;;;;;5.82;3.13;;;23.10;42.50;;;;;;6176987;28;82264;-64
2023/12/24 01:14:10;;;;;;;5.32;2.83;;;23.10;42.40;;;;;;6175289;28;84178;-64
2023/12/24 01:17:11;;;;;;;4.60;2.78;;;23.10;42.60;;;;;;6176864;28;80947;-65
2023/12/24 01:20:12;;;;;;;5.60;2.90;;;23.10;42.50;;;;;;6176919;28;80506;-65
2023/12/24 01:23:12;;;;;;;4.68;2.45;;;23.10;42.60;;;;;;6173253;28;82098;-65
2023/12/24 01:26:13;;;;;;;4.82;2.42;;;23.10;42.70;;;;;;6160772;28;81481;-64
2023/12/24 01:29:13;;;;;;;5.38;3.13;;;23.10;42.40;;;;;;6147941;28;81312;-62
2023/12/24 01:32:14;;;;;;;4.68;2.72;;;23.10;42.30;;;;;;6157051;28;80759;-61
2023/12/24 01:35:15;;;;;;;5.70;2.53;;;23.10;42.20;;;;;;6175079;28;83632;-60
2023/12/24 01:38:15;;;;;;;5.43;2.60;;;23.00;42.10;;;;;;6152649;28;81654;-60
2023/12/24 01:41:16;;;;;;;4.78;2.28;;;23.00;42.20;;;;;;6156376;28;81058;-60
2023/12/24 01:44:16;;;;;;;4.05;2.97;;;23.10;42.30;;;;;;6158291;28;80743;-59
2023/12/24 01:47:17;;;;;;;4.57;2.28;;;23.10;42.40;;;;;;6169038;28;83220;-59
2023/12/24 01:50:17;;;;;;;3.42;2.17;;;23.00;42.30;;;;;;6173865;28;83870;-59
2023/12/24 01:53:18;;;;;;;3.40;2.10;;;23.10;42.30;;;;;;6174185;28;81942;-60
2023/12/24 01:56:18;;;;;;;3.80;2.08;;;23.00;42.30;;;;;;6174351;28;80718;-59
2023/12/24 01:59:19;;;;;;;3.47;2.30;;;23.10;42.30;;;;;;6174240;28;83568;-59
2023/12/24 02:02:19;;;;;;;4.20;2.63;;;23.00;42.10;;;;;;6167125;28;83077;-59
2023/12/24 02:05:20;;;;;;;5.03;2.20;;;23.00;42.10;;;;;;6166421;28;83372;-67
2023/12/24 02:08:21;;;;;;;4.35;2.00;;;23.00;42.10;;;;;;6189393;28;83481;-65
2023/12/24 02:11:22;;;;;;;4.53;2.25;;;23.10;42.10;;;;;;6176222;28;82298;-67
2023/12/24 02:14:22;;;;;;;3.33;1.90;;;23.10;42.30;;;;;;6169128;28;82300;-65
2023/12/24 02:17:23;;;;;;;3.13;2.03;;;23.10;42.30;;;;;;6155945;28;81555;-66
2023/12/24 02:20:24;;;;;;;2.10;1.60;;;23.10;42.30;;;;;;6159744;28;81659;-65
2023/12/24 02:23:25;;;;;;;3.50;1.80;;;23.10;42.30;;;;;;6152775;28;81602;-65
2023/12/24 02:26:27;;;;;;;2.42;1.70;;;23.00;42.20;;;;;;6174165;28;83269;-64
2023/12/24 02:29:28;;;;;;;2.38;1.48;;;23.00;42.20;;;;;;6166494;28;83518;-64
2023/12/24 02:32:28;;;;;;;2.15;1.33;;;23.00;42.00;;;;;;6151285;28;81012;-66
2023/12/24 02:35:29;;;;;;;2.47;1.50;;;23.00;42.00;;;;;;6164283;28;80857;-66
2023/12/24 02:38:30;;;;;;;2.83;1.60;;;23.00;42.10;;;;;;6168492;28;83701;-67
2023/12/24 02:41:30;;;;;;;2.53;1.42;;;23.00;42.10;;;;;;6174683;28;80563;-59
2023/12/24 02:44:31;;;;;;;2.08;1.23;;;23.00;42.00;;;;;;6175581;28;80963;-60
2023/12/24 02:47:32;;;;;;;1.52;0.93;;;23.00;42.10;;;;;;6171186;28;81893;-61
2023/12/24 02:50:33;;;;;;;2.45;1.23;;;23.00;42.10;;;;;;6174105;28;81088;-60
2023/12/24 02:53:33;;;;;;;1.17;1.02;;;23.00;42.10;;;;;;6173761;28;81568;-60
2023/12/24 02:56:36;;;;;;;1.20;1.02;;;23.00;42.50;;;;;;6172492;28;83071;-60
2023/12/24 02:59:37;;;;;;;1.85;1.27;;;23.00;42.90;;;;;;6175426;28;82510;-60
2023/12/24 03:02:37;;;;;;;2.42;1.27;;;23.00;42.90;;;;;;6169681;28;82097;-59
2023/12/24 03:05:38;;;;;;;1.90;1.20;;;23.00;43.00;;;;;;6166053;28;81173;-59
2023/12/24 03:08:38;;;;;;;1.98;1.10;;;23.00;43.30;;;;;;6162907;28;80521;-60
2023/12/24 03:11:39;;;;;;;0.65;0.60;;;23.00;43.10;;;;;;6175319;28;82543;-60
2023/12/24 03:14:39;;;;;;;2.15;1.25;;;23.00;42.80;;;;;;6173070;28;82269;-60
2023/12/24 03:17:39;;;;;;;1.45;1.00;;;23.00;43.10;;;;;;6174904;28;81089;-63
2023/12/24 03:20:41;;;;;;;2.42;1.30;;;22.90;42.60;;;;;;6167329;28;83606;-64
2023/12/24 03:23:41;;;;;;;1.35;1.00;;;22.90;42.40;;;;;;6168720;28;80664;-63
2023/12/24 03:26:42;;;;;;;1.38;0.90;;;22.90;42.50;;;;;;6172206;28;80670;-63
2023/12/24 03:29:43;;;;;;;0.55;0.52;;;22.90;42.30;;;;;;6169076;28;80629;-63
2023/12/24 03:32:43;;;;;;;2.05;0.77;;;22.90;41.80;;;;;;6167717;28;80311;-65
2023/12/24 03:35:44;;;;;;;1.15;0.90;;;22.90;41.70;;;;;;6171576;28;80513;-65
2023/12/24 03:38:44;;;;;;;0.60;0.60;;;22.90;41.80;;;;;;6159867;28;81116;-60
2023/12/24 03:41:45;;;;;;;1.27;0.98;;;22.90;42.00;;;;;;6163289;28;80275;-59
2023/12/24 03:44:45;;;;;;;0.65;0.65;;;22.90;42.10;;;;;;6168535;28;81528;-61
2023/12/24 03:47:46;;;;;;;1.08;0.80;;;22.90;42.10;;;;;;6173665;28;80515;-60
2023/12/24 03:50:47;;;;;;;1.80;0.75;;;22.90;42.10;;;;;;6178664;28;80737;-60
2023/12/24 03:53:47;;;;;;;1.50;1.00;;;22.90;42.10;;;;;;6176545;28;82394;-60
2023/12/24 03:56:48;;;;;;;1.13;0.70;;;22.90;42.00;;;;;;6175460;28;83192;-60
2023/12/24 03:59:48;;;;;;;0.75;0.70;;;22.90;42.10;;;;;;6175568;28;83693;-59
2023/12/24 04:02:49;;;;;;;0.85;0.70;;;22.90;41.90;;;;;;6173757;28;80804;-60
2023/12/24 04:05:51;;;;;;;1.67;0.88;;;22.90;41.90;;;;;;6154184;28;80381;-60
2023/12/24 04:08:51;;;;;;;3.33;0.70;;;22.80;42.10;;;;;;6158444;28;80874;-60
2023/12/24 04:11:52;;;;;;;1.48;0.80;;;22.80;42.00;;;;;;6169686;28;84152;-60
2023/12/24 04:14:52;;;;;;;2.47;0.85;;;22.90;41.90;;;;;;6176207;28;83754;-61
2023/12/24 04:17:53;;;;;;;2.28;0.63;;;22.90;41.90;;;;;;6154881;28;80477;-60
2023/12/24 04:20:53;;;;;;;1.40;0.80;;;22.90;41.90;;;;;;6181907;28;83058;-59
2023/12/24 04:23:54;;;;;;;0.55;0.50;;;22.90;41.80;;;;;;6171698;28;83237;-60
2023/12/24 04:26:55;;;;;;;1.25;0.70;;;23.00;41.80;;;;;;6171745;28;82345;-59
2023/12/24 04:29:56;;;;;;;1.17;0.73;;;23.00;42.00;;;;;;6172632;28;83595;-58
2023/12/24 04:32:58;;;;;;;1.15;0.70;;;23.00;41.80;;;;;;6159261;28;83287;-59
2023/12/24 04:35:58;;;;;;;2.35;0.90;;;23.00;41.70;;;;;;6165198;28;83107;-58
2023/12/24 04:38:59;;;;;;;1.33;0.60;;;23.00;41.70;;;;;;6171589;28;87961;-59
2023/12/24 04:41:59;;;;;;;1.02;0.57;;;23.10;41.70;;;;;;6167804;28;82660;-59
2023/12/24 04:45:00;;;;;;;1.02;0.70;;;23.10;41.90;;;;;;6169560;28;80538;-59
2023/12/24 04:48:03;;;;;;;0.65;0.50;;;23.10;41.60;;;;;;6165263;28;83138;-59
2023/12/24 04:51:03;;;;;;;1.88;0.75;;;23.10;41.50;;;;;;6165373;28;82930;-59
2023/12/24 04:54:04;;;;;;;2.30;1.10;;;23.10;41.30;;;;;;6164704;28;82693;-59
2023/12/24 04:57:04;;;;;;;2.88;0.60;;;23.10;41.50;;;;;;6158346;28;83060;-59
2023/12/24 05:00:05;;;;;;;1.65;0.65;;;23.10;41.60;;;;;;6172007;28;83066;-58
2023/12/24 05:03:06;;;;;;;0.77;0.57;;;23.10;41.40;;;;;;6169854;28;83478;-59
2023/12/24 05:06:07;;;;;;;1.65;0.50;;;23.20;41.60;;;;;;6174618;28;83169;-58
2023/12/24 05:09:07;;;;;;;1.30;0.50;;;23.10;41.70;;;;;;6175642;28;80891;-70
2023/12/24 05:12:08;;;;;;;2.10;1.00;;;23.10;41.50;;;;;;6175477;28;80779;-67
2023/12/24 05:15:08;;;;;;;2.92;0.60;;;23.20;41.60;;;;;;6171859;28;83697;-63
2023/12/24 05:18:09;;;;;;;3.95;0.90;;;23.20;41.80;;;;;;6168759;28;83757;-65
2023/12/24 05:21:09;;;;;;;1.42;0.77;;;23.20;41.50;;;;;;6172901;28;83367;-62
2023/12/24 05:24:10;;;;;;;1.30;0.73;;;23.20;41.70;;;;;;6173617;28;83590;-63
2023/12/24 05:27:10;;;;;;;1.55;0.50;;;23.20;41.60;;;;;;6174569;28;83612;-64
2023/12/24 05:30:11;;;;;;;0.90;0.82;;;23.20;41.40;;;;;;6165795;28;81698;-65
2023/12/24 05:33:11;;;;;;;0.98;0.60;;;23.20;41.50;;;;;;6175238;28;84903;-65
2023/12/24 05:36:12;;;;;;;1.10;0.43;;;23.20;41.30;;;;;;6171955;28;80442;-65
2023/12/24 05:39:14;;;;;;;0.80;0.63;;;23.20;41.30;;;;;;6172328;28;81114;-66
2023/12/24 05:42:15;;;;;;;0.98;0.57;;;23.20;41.10;;;;;;6173232;28;80178;-66
2023/12/24 05:45:15;;;;;;;1.40;0.43;;;23.20;41.20;;;;;;6171199;28;81397;-58
2023/12/24 05:48:16;;;;;;;1.17;0.68;;;23.20;41.50;;;;;;6163206;28;85736;-57
2023/12/24 05:51:16;;;;;;;1.08;0.60;;;23.20;42.10;;;;;;6154573;28;81890;-55
2023/12/24 05:54:17;;;;;;;1.35;0.70;;;23.20;41.70;;;;;;6151129;28;81343;-58
2023/12/24 05:57:17;;;;;;;2.75;0.85;;;23.30;41.70;;;;;;6151977;28;81621;-58
2023/12/24 06:00:18;;;;;;;0.95;0.60;;;23.30;42.10;;;;;;6145643;28;81479;-58
2023/12/24 06:03:18;;;;;;;0.90;0.40;;;23.30;42.30;;;;;;6146441;28;81277;-58
2023/12/24 06:06:19;;;;;;;0.77;0.57;;;23.30;42.60;;;;;;6156200;28;81734;-59
2023/12/24 06:09:19;;;;;;;1.13;0.60;;;23.30;42.70;;;;;;6156772;28;82174;-57
2023/12/24 06:12:20;;;;;;;0.98;0.60;;;23.30;42.90;;;;;;6156003;28;81886;-57
2023/12/24 06:15:20;;;;;;;0.70;0.40;;;23.40;42.90;;;;;;6154017;28;80291;-54
2023/12/24 06:18:21;;;;;;;2.25;0.60;;;23.30;42.80;;;;;;6155943;28;81199;-58
2023/12/24 06:21:21;;;;;;;1.25;0.65;;;23.30;43.20;;;;;;6161073;28;81563;-61
2023/12/24 06:24:22;;;;;;;1.42;0.60;;;23.30;43.50;;;;;;6154078;28;83761;-60
2023/12/24 06:27:23;;;;;;;0.82;0.50;;;23.30;42.80;;;;;;6155461;28;80357;-59
2023/12/24 06:30:23;;;;;;;1.15;0.77;;;23.20;42.40;;;;;;6143206;28;82562;-58
2023/12/24 06:33:24;;;;;;;0.55;0.45;;;23.20;41.70;;;;;;6164703;28;82395;-58
2023/12/24 06:36:24;;;;;;;0.73;0.40;;;23.20;41.40;;;;;;6150899;28;81971;-59
2023/12/24 06:39:25;;;;;;;1.02;0.75;;;23.20;41.30;;;;;;6154860;28;80898;-62
2023/12/24 06:42:25;;;;;;;1.83;1.27;;;23.10;41.20;;;;;;6161082;28;80683;-63
2023/12/24 06:45:26;;;;;;;1.20;0.73;;;23.10;41.20;;;;;;6173142;28;80959;-62
2023/12/24 06:48:26;;;;;;;0.50;0.50;;;23.10;40.90;;;;;;6174215;28;84233;-62
2023/12/24 06:51:27;;;;;;;1.20;0.50;;;23.10;40.70;;;;;;6174945;28;81032;-62
2023/12/24 06:54:27;;;;;;;3.60;0.80;;;23.10;40.50;;;;;;6171263;28;81284;-65
2023/12/24 06:57:28;;;;;;;0.88;0.52;;;23.10;40.70;;;;;;6169021;28;81738;-62
2023/12/24 07:00:28;;;;;;;0.55;0.50;;;23.00;41.30;;;;;;6159094;28;84156;-63
2023/12/24 07:03:29;;;;;;;2.00;0.70;;;23.10;40.80;;;;;;6158171;28;81006;-71
2023/12/24 07:06:29;;;;;;;2.47;0.65;;;23.10;41.10;;;;;;6174426;28;81479;-74
2023/12/24 07:09:30;;;;;;;1.27;0.80;;;23.10;41.80;;;;;;6176390;28;84123;-65
2023/12/24 07:12:31;;;;;;;4.47;0.75;;;23.10;41.90;;;;;;6177300;28;80360;-70
2023/12/24 07:15:31;;;;;;;1.42;0.50;;;23.10;42.10;;;;;;6169175;28;81409;-71
2023/12/24 07:18:32;;;;;;;1.17;0.50;;;23.10;42.60;;;;;;6177930;28;80721;-69
2023/12/24 07:21:32;;;;;;;3.60;0.85;;;23.10;43.10;;;;;;6169667;28;80689;-70
2023/12/24 07:24:33;;;;;;;3.35;0.70;;;23.10;44.60;;;;;;6158960;28;81458;-67
2023/12/24 07:27:33;;;;;;;1.10;0.60;;;23.20;44.30;;;;;;6166551;28;80836;-67
2023/12/24 07:30:34;;;;;;;0.80;0.73;;;23.20;44.20;;;;;;6176456;28;81083;-64
2023/12/24 07:33:34;;;;;;;3.00;0.80;;;23.20;44.30;;;;;;6168542;28;80482;-65
2023/12/24 07:36:35;;;;;;;0.93;0.52;;;23.20;44.40;;;;;;6173320;28;80800;-60
2023/12/24 07:39:35;;;;;;;3.13;0.82;;;23.20;44.20;;;;;;6176324;28;81423;-60
2023/12/24 07:42:36;;;;;;;4.45;0.70;;;23.10;44.60;;;;;;6175479;28;86283;-59
2023/12/24 07:45:36;;;;;;;5.18;0.50;;;23.20;44.40;;;;;;6170312;28;80880;-60
2023/12/24 07:48:37;;;;;;;0.55;0.50;;;23.20;44.00;;;;;;6170864;28;83120;-61
2023/12/24 07:51:37;;;;;;;1.75;0.63;;;23.20;44.00;;;;;;6177354;28;80432;-61
2023/12/24 07:54:38;;;;;;;2.00;0.60;;;23.20;44.50;;;;;;6172555;28;80559;-62
2023/12/24 07:57:38;;;;;;;6.72;0.90;;;23.20;44.50;;;;;;6178184;28;81267;-62
2023/12/24 08:00:39;;;;;;;4.05;0.60;;;23.20;43.90;;;;;;6171938;28;81162;-60
2023/12/24 08:03:39;;;;;;;1.67;0.80;;;23.20;43.60;;;;;;6179396;28;80629;-61
2023/12/24 08:06:40;;;;;;;3.38;0.75;;;23.10;43.40;;;;;;6177354;28;80694;-61
2023/12/24 08:09:40;;;;;;;5.70;0.80;;;23.10;43.80;;;;;;6154309;28;81546;-65
2023/12/24 08:12:42;;;;;;;3.45;0.70;;;23.10;43.90;;;;;;6174574;28;80806;-60
2023/12/24 08:15:43;;;;;;;4.13;0.73;;;23.20;43.90;;;;;;6174872;28;82664;-60
2023/12/24 08:18:43;;;;;;;2.28;0.90;;;23.10;43.70;;;;;;6174497;28;80398;-59
2023/12/24 08:21:44;;;;;;;0.85;0.60;;;23.10;43.80;;;;;;6174055;28;80544;-61
2023/12/24 08:24:44;;;;;;;5.70;1.10;;;23.10;44.30;;;;;;6174106;28;80858;-60
2023/12/24 08:27:45;;;;;;;5.15;1.70;;;23.10;44.90;;;;;;6175575;28;81985;-59
2023/12/24 08:30:45;;;;;;;4.13;1.52;;;23.10;44.70;;;;;;6174562;28;80634;-68
2023/12/24 08:33:46;;;;;;;4.88;1.98;;;23.20;45.40;;;;;;6176753;28;80425;-68
2023/12/24 08:36:46;;;;;;;6.95;1.83;;;23.20;46.00;;;;;;6163758;28;80539;-71
2023/12/24 08:39:47;;;;;;;7.05;2.03;;;23.20;47.20;;;;;;6169742;28;81762;-68
2023/12/24 08:42:47;;;;;;;9.80;2.20;;;23.20;47.10;;;;;;6175561;28;80599;-68
2023/12/24 08:45:48;;;;;;;7.80;2.42;;;23.20;47.20;;;;;;6168010;28;80927;-69
2023/12/24 08:48:48;;;;;;;8.73;2.95;;;23.30;47.20;;;;;;6169871;28;80449;-62
2023/12/24 08:51:49;;;;;;;6.70;2.70;;;23.30;47.30;;;;;;6164496;28;83548;-62
2023/12/24 08:54:49;;;;;;;9.77;3.05;;;23.30;47.40;;;;;;6176996;28;80985;-63
2023/12/24 08:57:50;;;;;;;7.25;2.38;;;23.40;47.30;;;;;;6171632;28;81164;-62
2023/12/24 09:00:50;;;;;;;10.80;3.42;;;23.40;47.20;;;;;;6171744;28;82659;-62
2023/12/24 09:03:51;;;;;;;8.60;3.45;;;23.50;47.30;;;;;;6174968;28;80282;-62
2023/12/24 09:06:51;;;;;;;9.40;3.67;;;23.50;47.20;;;;;;6160593;28;84896;-60
2023/12/24 09:09:52;;;;;;;8.55;3.47;;;23.50;47.30;;;;;;6137675;28;80950;-59
2023/12/24 09:12:53;;;;;;;10.93;3.80;;;23.50;46.90;;;;;;6154801;28;81574;-59
2023/12/24 09:15:53;;;;;;;15.15;4.93;;;23.50;47.00;;;;;;6164319;28;81054;-61
2023/12/24 09:18:54;;;;;;;81.75;40.53;;;23.50;47.00;;;;;;6172265;28;83315;-60
2023/12/24 09:21:55;;;;;;;131.15;70.45;;;23.50;47.00;;;;;;6171820;28;86989;-60
2023/12/24 09:24:55;;;;;;;181.80;94.85;;;23.60;46.70;;;;;;6161838;28;82975;-60
2023/12/24 09:27:56;;;;;;;159.85;84.50;;;23.60;46.90;;;;;;6175580;28;85772;-61
2023/12/24 09:30:57;;;;;;;154.32;75.18;;;23.70;47.10;;;;;;6170863;28;84091;-60
2023/12/24 09:33:57;;;;;;;119.28;63.13;;;23.70;47.30;;;;;;6175628;28;84106;-61
2023/12/24 09:36:58;;;;;;;159.50;84.65;;;23.70;47.70;;;;;;6159884;28;83198;-60
2023/12/24 09:39:58;;;;;;;181.07;92.53;;;23.70;47.20;;;;;;6148773;28;84140;-62
2023/12/24 09:42:59;;;;;;;217.80;109.97;;;23.70;47.20;;;;;;6145669;28;87099;-60
2023/12/24 09:45:59;;;;;;;229.00;115.30;;;23.70;47.00;;;;;;6147881;28;87712;-67
2023/12/24 09:49:00;;;;;;;199.00;97.03;;;23.70;46.80;;;;;;6150885;28;85878;-64
2023/12/24 09:52:01;;;;;;;176.18;87.35;;;23.80;47.10;;;;;;6152382;28;84596;-62
2023/12/24 09:55:01;;;;;;;158.00;78.03;;;23.80;47.00;;;;;;6159782;28;83398;-64
2023/12/24 09:58:02;;;;;;;140.20;71.30;;;23.80;47.10;;;;;;6161944;28;85327;-61
2023/12/24 10:01:02;;;;;;;132.60;66.25;;;23.80;46.60;;;;;;6168437;28;83287;-61
2023/12/24 10:04:03;;;;;;;119.95;63.05;;;23.80;46.80;;;;;;6172391;28;84063;-62
2023/12/24 10:07:03;;;;;;;104.03;52.60;;;23.80;46.60;;;;;;6161854;28;86409;-62
2023/12/24 10:10:04;;;;;;;97.82;46.53;;;23.90;47.00;;;;;;6161896;28;83579;-62
2023/12/24 10:13:05;;;;;;;92.93;45.50;;;23.80;46.40;;;;;;6168808;28;84738;-61
2023/12/24 10:16:05;;;;;;;87.43;42.65;;;23.90;46.20;;;;;;6164290;28;83957;-62
2023/12/24 10:19:06;;;;;;;72.97;38.70;;;23.90;46.00;;;;;;6159590;28;83036;-66
2023/12/24 10:22:06;;;;;;;73.32;36.70;;;23.80;46.00;;;;;;6158643;28;82865;-73
2023/12/24 10:25:07;;;;;;;71.38;33.60;;;23.80;46.20;;;;;;6151487;28;83689;-77
2023/12/24 10:28:07;;;;;;;71.57;32.22;;;23.80;46.40;;;;;;6160443;28;87220;-73
2023/12/24 10:31:08;;;;;;;62.90;29.70;;;23.80;46.20;;;;;;6165188;28;89541;-71
2023/12/24 10:34:08;;;;;;;58.92;30.80;;;23.90;46.10;;;;;;6161276;28;83178;-66
2023/12/24 10:37:09;;;;;;;53.00;26.80;;;23.90;46.10;;;;;;6157822;28;84096;-67
2023/12/24 10:40:10;;;;;;;51.65;25.63;;;23.80;45.90;;;;;;6161373;28;83604;-67
2023/12/24 10:43:10;;;;;;;49.03;23.10;;;23.80;46.20;;;;;;6159254;28;83019;-67
2023/12/24 10:46:11;;;;;;;41.05;22.23;;;23.80;46.70;;;;;;6153488;28;86711;-73
2023/12/24 10:49:11;;;;;;;41.13;20.55;;;23.80;46.30;;;;;;6154108;28;84669;-72
2023/12/24 10:52:12;;;;;;;39.55;22.45;;;23.70;46.50;;;;;;6166387;28;85858;-69
2023/12/24 10:55:12;;;;;;;42.05;20.80;;;23.80;45.70;;;;;;6148010;28;85777;-75
2023/12/24 10:58:13;;;;;;;41.53;19.77;;;23.70;45.40;;;;;;6173402;28;83665;-60
2023/12/24 11:01:13;;;;;;;34.03;18.73;;;23.70;45.50;;;;;;6165764;28;83348;-60
2023/12/24 11:04:14;;;;;;;28.15;16.00;;;23.70;44.90;;;;;;6157810;28;84707;-58
2023/12/24 11:07:14;;;;;;;35.53;17.35;;;23.70;45.00;;;;;;6172999;28;83248;-59
2023/12/24 11:10:15;;;;;;;28.83;15.23;;;23.60;44.70;;;;;;6139558;28;85528;-61
2023/12/24 11:13:15;;;;;;;27.65;14.07;;;23.60;44.70;;;;;;6156627;28;83592;-61
2023/12/24 11:16:15;;;;;;;27.45;14.27;;;23.60;44.70;;;;;;6149230;28;85795;-60
2023/12/24 11:19:16;;;;;;;27.50;14.55;;;23.60;44.60;;;;;;6154592;28;83816;-60
2023/12/24 11:22:16;;;;;;;26.45;13.35;;;23.60;45.40;;;;;;6140306;28;84334;-59
2023/12/24 11:25:17;;;;;;;20.88;11.70;;;23.50;45.50;;;;;;6136516;28;86019;-58
2023/12/24 11:28:17;;;;;;;25.02;12.85;;;23.50;45.20;;;;;;6142125;28;83611;-60
2023/12/24 11:31:20;;;;;;;26.25;13.18;;;23.50;45.40;;;;;;6149055;28;83855;-59
2023/12/24 11:34:20;;;;;;;24.33;12.57;;;23.50;45.90;;;;;;6155739;28;84296;-60
2023/12/24 11:37:21;;;;;;;17.55;10.50;;;23.50;46.70;;;;;;6143524;28;83866;-59
2023/12/24 11:40:21;;;;;;;21.73;11.38;;;23.50;46.70;;;;;;6145257;28;84386;-58
2023/12/24 11:43:22;;;;;;;18.75;11.57;;;23.50;46.80;;;;;;6151177;28;84379;-57
2023/12/24 11:46:22;;;;;;;18.02;10.57;;;23.60;46.90;;;;;;6140323;28;83723;-58
2023/12/24 11:49:23;;;;;;;20.52;9.90;;;23.60;46.40;;;;;;6148616;28;89132;-58
2023/12/24 11:52:23;;;;;;;16.05;9.38;;;23.60;46.50;;;;;;6153211;28;84255;-64
2023/12/24 11:55:24;;;;;;;16.40;9.90;;;23.60;46.90;;;;;;6160768;28;81229;-62
2023/12/24 11:58:24;;;;;;;17.30;9.73;;;23.50;47.20;;;;;;6157386;28;83925;-65
2023/12/24 12:01:25;;;;;;;18.40;9.98;;;23.60;47.60;;;;;;6148289;28;80854;-65
2023/12/24 12:04:25;;;;;;;13.90;9.32;;;23.60;47.20;;;;;;6149274;28;85226;-64
2023/12/24 12:07:26;;;;;;;15.93;9.73;;;23.60;47.70;;;;;;6152981;28;83019;-63
2023/12/24 12:10:26;;;;;;;17.13;9.65;;;23.60;47.40;;;;;;6152745;28;81251;-64
2023/12/24 12:13:27;;;;;;;17.10;10.40;;;23.60;47.00;;;;;;6160151;28;81268;-64
2023/12/24 12:16:27;;;;;;;17.10;10.18;;;23.60;46.90;;;;;;6154255;28;87345;-63
2023/12/24 12:19:28;;;;;;;17.85;9.93;;;23.60;47.10;;;;;;6158394;28;84575;-63
2023/12/24 12:22:28;;;;;;;16.08;9.82;;;23.60;46.90;;;;;;6153818;28;84751;-64
2023/12/24 12:25:29;;;;;;;14.75;9.70;;;23.60;46.90;;;;;;6164115;28;81256;-63
2023/12/24 12:28:29;;;;;;;15.02;9.68;;;23.60;47.10;;;;;;6157872;28;81251;-60
2023/12/24 12:31:30;;;;;;;15.88;9.45;;;23.60;47.20;;;;;;6149562;28;81230;-59
2023/12/24 12:34:30;;;;;;;13.70;10.05;;;23.60;47.10;;;;;;6160944;28;82346;-59
2023/12/24 12:37:31;;;;;;;13.32;10.73;;;23.60;47.10;;;;;;6142900;28;83995;-60
2023/12/24 12:40:31;;;;;;;12.77;8.95;;;23.50;47.10;;;;;;6146666;28;83689;-58
2023/12/24 12:43:32;;;;;;;12.35;8.68;;;23.50;46.90;;;;;;6163089;28;82947;-59
2023/12/24 12:46:32;;;;;;;15.55;9.23;;;23.50;47.30;;;;;;6155850;28;81484;-60
2023/12/24 12:49:33;;;;;;;15.95;8.77;;;23.50;47.50;;;;;;6156406;28;81629;-60
2023/12/24 12:52:34;;;;;;;14.18;8.15;;;23.50;47.30;;;;;;6155099;28;82852;-61
2023/12/24 12:55:34;;;;;;;10.70;7.38;;;23.50;47.10;;;;;;6155866;28;84721;-62
2023/12/24 12:58:35;;;;;;;12.80;7.75;;;23.50;47.70;;;;;;6176780;28;80426;-61
2023/12/24 13:01:36;;;;;;;11.70;7.18;;;23.50;48.90;;;;;;6166869;28;80404;-62
2023/12/24 13:04:37;;;;;;;10.77;6.85;;;23.60;47.60;;;;;;6162678;28;83025;-60
2023/12/24 13:07:37;;;;;;;16.35;8.82;;;23.60;47.90;;;;;;6156951;28;82584;-60
2023/12/24 13:10:38;;;;;;;24.45;9.63;;;23.60;49.10;;;;;;6174776;28;80624;-60
2023/12/24 13:13:39;;;;;;;34.17;11.75;;;23.60;49.80;;;;;;6175799;28;81368;-60
2023/12/24 13:16:39;;;;;;;23.52;10.40;;;23.60;52.20;;;;;;6170398;28;83159;-60
2023/12/24 13:19:40;;;;;;;31.02;14.07;;;23.70;50.70;;;;;;6173548;28;83952;-60
2023/12/24 13:22:40;;;;;;;37.97;14.75;;;23.70;52.20;;;;;;6166618;28;83609;-61
2023/12/24 13:25:41;;;;;;;45.03;17.15;;;23.70;53.20;;;;;;6170696;28;83584;-59
2023/12/24 13:28:41;;;;;;;54.30;17.98;;;23.70;54.10;;;;;;6164949;28;86851;-59
2023/12/24 13:31:42;;;;;;;51.80;21.60;;;23.70;54.00;;;;;;6160174;28;83381;-59
2023/12/24 13:34:42;;;;;;;62.75;20.67;;;23.70;54.40;;;;;;6165450;28;83107;-61
2023/12/24 13:37:43;;;;;;;53.80;21.50;;;23.70;55.30;;;;;;6152183;28;83336;-59
2023/12/24 13:40:43;;;;;;;59.17;21.10;;;23.70;55.90;;;;;;6173128;28;84044;-59
2023/12/24 13:43:44;;;;;;;50.33;19.55;;;23.80;55.60;;;;;;6174098;28;83457;-60
2023/12/24 13:46:44;;;;;;;50.67;18.80;;;23.80;55.60;;;;;;6163193;28;83028;-59
2023/12/24 13:49:45;;;;;;;40.55;17.30;;;23.90;55.30;;;;;;6168493;28;83452;-58
2023/12/24 13:52:45;;;;;;;45.15;17.73;;;23.90;55.20;;;;;;6166899;28;84675;-59
2023/12/24 13:55:46;;;;;;;40.63;16.23;;;23.90;54.80;;;;;;6172878;28;83576;-58
2023/12/24 13:58:46;;;;;;;44.38;18.02;;;23.90;54.50;;;;;;6168066;28;83147;-58
2023/12/24 14:01:47;;;;;;;37.33;15.40;;;23.90;54.10;;;;;;6164013;28;83017;-59
2023/12/24 14:04:47;;;;;;;40.47;15.70;;;23.90;53.60;;;;;;6164242;28;83606;-58
2023/12/24 14:07:47;;;;;;;38.42;14.55;;;23.90;53.50;;;;;;6172148;28;83316;-57
2023/12/24 14:10:48;;;;;;;39.53;14.43;;;23.90;53.30;;;;;;6166266;28;84644;-59
2023/12/24 14:13:50;;;;;;;32.20;12.93;;;23.90;53.10;;;;;;6168145;28;84417;-59
2023/12/24 14:16:50;;;;;;;33.25;13.35;;;23.90;53.10;;;;;;6166114;28;85468;-60
2023/12/24 14:19:53;;;;;;;25.05;11.82;;;23.80;52.80;;;;;;6167118;28;86910;-66
2023/12/24 14:22:54;;;;;;;26.98;12.07;;;23.80;52.60;;;;;;6157275;28;86340;-67
2023/12/24 14:25:55;;;;;;;33.08;11.68;;;23.80;52.70;;;;;;6171128;28;86270;-64
2023/12/24 14:28:55;;;;;;;59.85;21.70;;;23.80;52.80;;;;;;6170622;28;83134;-65
2023/12/24 14:31:56;;;;;;;53.35;19.35;;;23.80;52.90;;;;;;6166247;28;82810;-69
2023/12/24 14:34:56;;;;;;;69.97;21.88;;;23.80;53.20;;;;;;6168936;28;83239;-67
2023/12/24 14:37:57;;;;;;;56.38;21.58;;;23.80;53.00;;;;;;6155622;28;82671;-65
2023/12/24 14:40:57;;;;;;;50.10;18.50;;;23.80;52.90;;;;;;6169698;28;83105;-71
2023/12/24 14:43:58;;;;;;;45.67;16.00;;;23.80;52.70;;;;;;6169624;28;83057;-65
2023/12/24 14:46:58;;;;;;;41.47;16.05;;;23.80;52.80;;;;;;6162834;28;83114;-71
2023/12/24 14:49:59;;;;;;;45.45;14.73;;;23.80;52.70;;;;;;6169587;28;84099;-68
2023/12/24 14:52:59;;;;;;;36.38;13.52;;;23.80;52.50;;;;;;6157859;28;83451;-68
2023/12/24 14:56:00;;;;;;;40.33;13.63;;;23.80;52.60;;;;;;6161696;28;84439;-60
2023/12/24 14:59:01;;;;;;;29.10;11.40;;;23.80;52.50;;;;;;6160075;28;83322;-58
2023/12/24 15:02:01;;;;;;;38.35;12.40;;;23.80;52.50;;;;;;6171992;28;83512;-67
2023/12/24 15:05:03;;;;;;;26.38;11.05;;;23.80;52.30;;;;;;6171897;28;83181;-66
2023/12/24 15:08:03;;;;;;;30.05;10.27;;;23.80;51.80;;;;;;6170952;28;83226;-64
2023/12/24 15:11:04;;;;;;;30.92;11.93;;;23.80;52.20;;;;;;6170892;28;84291;-63
2023/12/24 15:14:04;;;;;;;28.02;9.10;;;23.80;51.90;;;;;;6171528;28;83240;-58
2023/12/24 15:17:05;;;;;;;24.73;8.45;;;23.80;51.70;;;;;;6169564;28;83606;-56
2023/12/24 15:20:05;;;;;;;29.17;9.68;;;23.80;51.80;;;;;;6177885;28;80593;-58
2023/12/24 15:23:06;;;;;;;18.95;8.60;;;23.80;52.30;;;;;;6179905;28;80897;-58
2023/12/24 15:26:07;;;;;;;19.63;8.38;;;23.80;52.10;;;;;;6179230;28;80855;-58
2023/12/24 15:29:11;;;;;;;18.55;8.13;;;23.80;52.00;;;;;;6179285;28;80934;-57